Stella Ada — 9V9082 — position and weather

sailwx.info

Track history (hours):
 
Tides and Currents Weather Stations Pressure Air Temp Water Temp Dewpoint Dewpoint Depression Visibility Wind Speed Wind Dir Waves Ship Positions

Stella Ada

Last reported at 2016-Apr-24 13:11 UTC. Time now 2016-May-05 14:13 UTC.
Position S 16°24' E 117°35'.
Warning: this ship's position is 11 days out of date.

Length 296 m; draft 8.7 m.

Type: Cargo ship. MMSI: 566089000.

Date/timePositionNaut miles runAvg speedWind from/ knotsBaromVisibWave heightAir tempDewpointWater temp
2016-Apr-24 13:11S 16°24' E 117°35'711.6
2016-Apr-24 12:33S 16°31' E 117°36'1211.8
2016-Apr-24 11:32S 16°43' E 117°39'5111.7
2016-Apr-24 07:08S 17°32' E 117°52'1211.6
2016-Apr-24 06:07S 17°44' E 117°55'4411.6
2016-Apr-24 02:19S 18°27' E 118°05'811.0
2016-Apr-24 01:33S 18°35' E 118°08'1110.9
2016-Apr-24 00:32S 18°46' E 118°10'1211.1
2016-Apr-23 23:28S 18°57' E 118°13'1411.2
2016-Apr-23 22:11S 19°12' E 118°17'711.7
2016-Apr-23 21:33S 19°19' E 118°19'1212.1
2016-Apr-23 20:32S 19°31' E 118°21'1212.5
2016-Apr-23 19:33S 19°43' E 118°24'1312.5
2016-Apr-23 18:33S 19°55' E 118°28'1110.7
2016-Apr-23 17:33S 20°05' E 118°27'10 9.8
2016-Apr-23 16:33S 20°13' E 118°33'6 5.9
2016-Apr-23 15:33S 20°19' E 118°34'1 0.6
2016-Apr-23 14:15S 20°20' E 118°34'0 0.0
2016-Apr-22 18:32S 20°20' E 118°34'0 0.0
2016-Apr-22 17:14S 20°20' E 118°34'0 0.0
2016-Apr-22 16:32S 20°20' E 118°34'0 0.0
2016-Apr-22 09:32S 20°20' E 118°34'13 0.6
2016-Apr-21 13:33S 20°07' E 118°31'14 7.2
2016-Apr-21 11:33S 19°54' E 118°27'1514.4
2016-Apr-21 10:33S 19°39' E 118°23'1414.1
2016-Apr-21 09:33S 19°26' E 118°19'1413.4
2016-Apr-21 08:33S 19°13' E 118°16'15212.7
2016-Apr-20 20:33S 16°45' E 117°40'4213.3
2016-Apr-20 17:25S 16°04' E 117°30'  
Track history (hours):
 
Tides and Currents Weather Stations Pressure Air Temp Water Temp Dewpoint Dewpoint Depression Visibility Wind Speed Wind Dir Waves Ship Positions

Stella Ada

Last reported at 2016-Apr-24 13:11 UTC. Time now 2016-May-05 14:13 UTC.
Position S 16°24' E 117°35'.
Warning: this ship's position is 11 days out of date.

Length 296 m; draft 8.7 m.

Type: Cargo ship. MMSI: 566089000.

Date/timePositionNaut miles runAvg speedWind from/ knotsBaromVisibWave heightAir tempDewpointWater temp
2016-Apr-24 13:11S 16°24' E 117°35'711.6
2016-Apr-24 12:33S 16°31' E 117°36'1211.8
2016-Apr-24 11:32S 16°43' E 117°39'5111.7
2016-Apr-24 07:08S 17°32' E 117°52'1211.6
2016-Apr-24 06:07S 17°44' E 117°55'4411.6
2016-Apr-24 02:19S 18°27' E 118°05'811.0
2016-Apr-24 01:33S 18°35' E 118°08'1110.9
2016-Apr-24 00:32S 18°46' E 118°10'1211.1
2016-Apr-23 23:28S 18°57' E 118°13'1411.2
2016-Apr-23 22:11S 19°12' E 118°17'711.7
2016-Apr-23 21:33S 19°19' E 118°19'1212.1
2016-Apr-23 20:32S 19°31' E 118°21'1212.5
2016-Apr-23 19:33S 19°43' E 118°24'1312.5
2016-Apr-23 18:33S 19°55' E 118°28'1110.7
2016-Apr-23 17:33S 20°05' E 118°27'10 9.8
2016-Apr-23 16:33S 20°13' E 118°33'6 5.9
2016-Apr-23 15:33S 20°19' E 118°34'1 0.6
2016-Apr-23 14:15S 20°20' E 118°34'0 0.0
2016-Apr-22 18:32S 20°20' E 118°34'0 0.0
2016-Apr-22 17:14S 20°20' E 118°34'0 0.0
2016-Apr-22 16:32S 20°20' E 118°34'0 0.0
2016-Apr-22 09:32S 20°20' E 118°34'13 0.6
2016-Apr-21 13:33S 20°07' E 118°31'14 7.2
2016-Apr-21 11:33S 19°54' E 118°27'1514.4
2016-Apr-21 10:33S 19°39' E 118°23'1414.1
2016-Apr-21 09:33S 19°26' E 118°19'1413.4
2016-Apr-21 08:33S 19°13' E 118°16'15212.7
2016-Apr-20 20:33S 16°45' E 117°40'4213.3
2016-Apr-20 17:25S 16°04' E 117°30'  

Dump ship's entire track history